sensor_id;sensor_type;location;lat;lon;timestamp;P1;durP1;ratioP1;P2;durP2;ratioP2
22754;SDS011;11544;42.020;23.094;2024-02-26T00:00:09;5.03;;;3.83;;
22754;SDS011;11544;42.020;23.094;2024-02-26T00:02:37;9.02;;;4.32;;
22754;SDS011;11544;42.020;23.094;2024-02-26T00:05:05;8.27;;;4.20;;
22754;SDS011;11544;42.020;23.094;2024-02-26T00:07:33;7.63;;;4.18;;
22754;SDS011;11544;42.020;23.094;2024-02-26T00:10:00;13.05;;;4.85;;
22754;SDS011;11544;42.020;23.094;2024-02-26T00:12:27;7.90;;;4.53;;
22754;SDS011;11544;42.020;23.094;2024-02-26T00:14:54;7.55;;;4.28;;
22754;SDS011;11544;42.020;23.094;2024-02-26T00:17:23;5.60;;;3.20;;
22754;SDS011;11544;42.020;23.094;2024-02-26T00:19:51;6.25;;;3.67;;
22754;SDS011;11544;42.020;23.094;2024-02-26T00:22:17;15.32;;;4.32;;
22754;SDS011;11544;42.020;23.094;2024-02-26T00:24:44;9.80;;;4.28;;
22754;SDS011;11544;42.020;23.094;2024-02-26T00:27:11;8.40;;;4.43;;
22754;SDS011;11544;42.020;23.094;2024-02-26T00:29:38;11.15;;;5.20;;
22754;SDS011;11544;42.020;23.094;2024-02-26T00:32:05;12.23;;;3.67;;
22754;SDS011;11544;42.020;23.094;2024-02-26T00:34:32;6.13;;;4.32;;
22754;SDS011;11544;42.020;23.094;2024-02-26T00:36:59;7.00;;;5.05;;
22754;SDS011;11544;42.020;23.094;2024-02-26T00:39:26;7.35;;;3.95;;
22754;SDS011;11544;42.020;23.094;2024-02-26T00:41:53;6.90;;;4.22;;
22754;SDS011;11544;42.020;23.094;2024-02-26T00:44:20;10.00;;;4.95;;
22754;SDS011;11544;42.020;23.094;2024-02-26T00:46:47;10.70;;;6.63;;
22754;SDS011;11544;42.020;23.094;2024-02-26T00:49:14;16.92;;;8.90;;
22754;SDS011;11544;42.020;23.094;2024-02-26T00:51:40;13.98;;;7.47;;
22754;SDS011;11544;42.020;23.094;2024-02-26T00:54:07;12.57;;;8.15;;
22754;SDS011;11544;42.020;23.094;2024-02-26T00:56:34;13.35;;;6.90;;
22754;SDS011;11544;42.020;23.094;2024-02-26T00:59:01;10.70;;;5.90;;
22754;SDS011;11544;42.020;23.094;2024-02-26T01:01:28;10.45;;;5.38;;
22754;SDS011;11544;42.020;23.094;2024-02-26T01:03:55;10.82;;;4.88;;
22754;SDS011;11544;42.020;23.094;2024-02-26T01:06:22;5.90;;;4.22;;
22754;SDS011;11544;42.020;23.094;2024-02-26T01:08:50;7.28;;;4.43;;
22754;SDS011;11544;42.020;23.094;2024-02-26T01:11:17;7.05;;;4.43;;
22754;SDS011;11544;42.020;23.094;2024-02-26T01:13:43;7.30;;;4.32;;
22754;SDS011;11544;42.020;23.094;2024-02-26T01:16:10;6.28;;;4.22;;
22754;SDS011;11544;42.020;23.094;2024-02-26T01:18:37;5.22;;;3.22;;
22754;SDS011;11544;42.020;23.094;2024-02-26T01:21:04;5.03;;;3.60;;
22754;SDS011;11544;42.020;23.094;2024-02-26T01:23:35;5.47;;;3.63;;
22754;SDS011;11544;42.020;23.094;2024-02-26T01:26:02;14.82;;;8.40;;
22754;SDS011;11544;42.020;23.094;2024-02-26T01:28:30;13.68;;;9.20;;
22754;SDS011;11544;42.020;23.094;2024-02-26T01:30:57;14.68;;;9.35;;
22754;SDS011;11544;42.020;23.094;2024-02-26T01:33:25;16.70;;;9.48;;
22754;SDS011;11544;42.020;23.094;2024-02-26T01:35:52;15.05;;;10.13;;
22754;SDS011;11544;42.020;23.094;2024-02-26T01:38:19;14.18;;;9.82;;
22754;SDS011;11544;42.020;23.094;2024-02-26T01:40:46;16.90;;;10.15;;
22754;SDS011;11544;42.020;23.094;2024-02-26T01:43:13;15.57;;;10.43;;
22754;SDS011;11544;42.020;23.094;2024-02-26T01:45:40;15.85;;;10.95;;
22754;SDS011;11544;42.020;23.094;2024-02-26T01:48:07;17.20;;;11.00;;
22754;SDS011;11544;42.020;23.094;2024-02-26T01:50:34;16.75;;;10.63;;
22754;SDS011;11544;42.020;23.094;2024-02-26T01:53:03;18.45;;;10.82;;
22754;SDS011;11544;42.020;23.094;2024-02-26T01:55:30;15.93;;;10.98;;
22754;SDS011;11544;42.020;23.094;2024-02-26T01:57:57;18.20;;;11.35;;
22754;SDS011;11544;42.020;23.094;2024-02-26T02:00:25;14.75;;;10.80;;
22754;SDS011;11544;42.020;23.094;2024-02-26T02:02:52;15.55;;;10.10;;
22754;SDS011;11544;42.020;23.094;2024-02-26T02:05:21;17.33;;;10.60;;
22754;SDS011;11544;42.020;23.094;2024-02-26T02:07:49;18.55;;;9.70;;
22754;SDS011;11544;42.020;23.094;2024-02-26T02:10:16;14.27;;;9.88;;
22754;SDS011;11544;42.020;23.094;2024-02-26T02:12:44;14.30;;;10.02;;
22754;SDS011;11544;42.020;23.094;2024-02-26T02:15:11;12.25;;;9.52;;
22754;SDS011;11544;42.020;23.094;2024-02-26T02:17:38;13.45;;;9.75;;
22754;SDS011;11544;42.020;23.094;2024-02-26T02:20:09;12.40;;;9.52;;
22754;SDS011;11544;42.020;23.094;2024-02-26T02:22:42;17.63;;;9.98;;
22754;SDS011;11544;42.020;23.094;2024-02-26T02:25:09;14.27;;;10.50;;
22754;SDS011;11544;42.020;23.094;2024-02-26T02:27:36;15.93;;;10.88;;
22754;SDS011;11544;42.020;23.094;2024-02-26T02:30:03;18.60;;;10.98;;
22754;SDS011;11544;42.020;23.094;2024-02-26T02:32:31;15.85;;;9.68;;
22754;SDS011;11544;42.020;23.094;2024-02-26T02:34:58;13.38;;;9.68;;
22754;SDS011;11544;42.020;23.094;2024-02-26T02:37:25;13.95;;;9.15;;
22754;SDS011;11544;42.020;23.094;2024-02-26T02:39:52;14.02;;;9.77;;
22754;SDS011;11544;42.020;23.094;2024-02-26T02:42:21;12.75;;;9.27;;
22754;SDS011;11544;42.020;23.094;2024-02-26T02:44:48;12.23;;;8.50;;
22754;SDS011;11544;42.020;23.094;2024-02-26T02:47:15;10.80;;;7.25;;
22754;SDS011;11544;42.020;23.094;2024-02-26T02:49:42;9.32;;;4.13;;
22754;SDS011;11544;42.020;23.094;2024-02-26T02:52:08;6.32;;;4.28;;
22754;SDS011;11544;42.020;23.094;2024-02-26T02:54:35;13.05;;;6.00;;
22754;SDS011;11544;42.020;23.094;2024-02-26T02:57:04;15.18;;;9.65;;
22754;SDS011;11544;42.020;23.094;2024-02-26T02:59:31;16.77;;;10.15;;
22754;SDS011;11544;42.020;23.094;2024-02-26T03:01:58;16.27;;;9.57;;
22754;SDS011;11544;42.020;23.094;2024-02-26T03:04:25;18.10;;;11.40;;
22754;SDS011;11544;42.020;23.094;2024-02-26T03:06:52;16.65;;;10.90;;
22754;SDS011;11544;42.020;23.094;2024-02-26T03:09:19;20.48;;;11.95;;
22754;SDS011;11544;42.020;23.094;2024-02-26T03:11:46;18.58;;;12.00;;
22754;SDS011;11544;42.020;23.094;2024-02-26T03:14:13;19.33;;;11.60;;
22754;SDS011;11544;42.020;23.094;2024-02-26T03:16:40;15.98;;;10.55;;
22754;SDS011;11544;42.020;23.094;2024-02-26T03:19:08;17.48;;;10.65;;
22754;SDS011;11544;42.020;23.094;2024-02-26T03:21:35;17.27;;;10.00;;
22754;SDS011;11544;42.020;23.094;2024-02-26T03:24:01;16.73;;;10.00;;
22754;SDS011;11544;42.020;23.094;2024-02-26T03:26:28;22.08;;;10.63;;
22754;SDS011;11544;42.020;23.094;2024-02-26T03:28:57;15.80;;;10.30;;
22754;SDS011;11544;42.020;23.094;2024-02-26T03:31:24;17.20;;;10.70;;
22754;SDS011;11544;42.020;23.094;2024-02-26T03:33:51;17.45;;;11.63;;
22754;SDS011;11544;42.020;23.094;2024-02-26T03:36:18;15.82;;;9.98;;
22754;SDS011;11544;42.020;23.094;2024-02-26T03:38:46;16.75;;;10.93;;
22754;SDS011;11544;42.020;23.094;2024-02-26T03:41:13;15.60;;;10.95;;
22754;SDS011;11544;42.020;23.094;2024-02-26T03:43:40;17.80;;;10.65;;
22754;SDS011;11544;42.020;23.094;2024-02-26T03:46:07;19.67;;;10.75;;
22754;SDS011;11544;42.020;23.094;2024-02-26T03:48:35;15.13;;;10.43;;
22754;SDS011;11544;42.020;23.094;2024-02-26T03:51:03;17.35;;;11.05;;
22754;SDS011;11544;42.020;23.094;2024-02-26T03:53:30;17.05;;;10.95;;
22754;SDS011;11544;42.020;23.094;2024-02-26T03:55:57;17.58;;;11.40;;
22754;SDS011;11544;42.020;23.094;2024-02-26T03:58:24;20.00;;;11.00;;
22754;SDS011;11544;42.020;23.094;2024-02-26T04:00:51;17.27;;;11.45;;
22754;SDS011;11544;42.020;23.094;2024-02-26T04:03:18;16.75;;;9.98;;
22754;SDS011;11544;42.020;23.094;2024-02-26T04:05:45;18.10;;;12.02;;
22754;SDS011;11544;42.020;23.094;2024-02-26T04:08:15;17.85;;;11.93;;
22754;SDS011;11544;42.020;23.094;2024-02-26T04:10:41;21.60;;;13.43;;
22754;SDS011;11544;42.020;23.094;2024-02-26T04:13:08;21.45;;;12.70;;
22754;SDS011;11544;42.020;23.094;2024-02-26T04:15:36;22.40;;;13.80;;
22754;SDS011;11544;42.020;23.094;2024-02-26T04:18:03;20.10;;;12.02;;
22754;SDS011;11544;42.020;23.094;2024-02-26T04:20:30;22.17;;;11.77;;
22754;SDS011;11544;42.020;23.094;2024-02-26T04:22:57;20.02;;;12.98;;
22754;SDS011;11544;42.020;23.094;2024-02-26T04:25:24;21.85;;;13.15;;
22754;SDS011;11544;42.020;23.094;2024-02-26T04:27:51;18.27;;;12.05;;
22754;SDS011;11544;42.020;23.094;2024-02-26T04:30:18;20.63;;;13.15;;
22754;SDS011;11544;42.020;23.094;2024-02-26T04:32:45;22.80;;;14.20;;
22754;SDS011;11544;42.020;23.094;2024-02-26T04:35:12;23.17;;;13.50;;
22754;SDS011;11544;42.020;23.094;2024-02-26T04:37:48;19.45;;;12.27;;
22754;SDS011;11544;42.020;23.094;2024-02-26T04:40:22;19.55;;;12.90;;
22754;SDS011;11544;42.020;23.094;2024-02-26T04:42:49;20.35;;;12.98;;
22754;SDS011;11544;42.020;23.094;2024-02-26T04:45:16;18.45;;;12.70;;
22754;SDS011;11544;42.020;23.094;2024-02-26T04:47:43;24.33;;;15.27;;
22754;SDS011;11544;42.020;23.094;2024-02-26T04:50:10;18.95;;;13.35;;
22754;SDS011;11544;42.020;23.094;2024-02-26T04:52:37;22.02;;;13.68;;
22754;SDS011;11544;42.020;23.094;2024-02-26T04:55:04;23.23;;;13.73;;
22754;SDS011;11544;42.020;23.094;2024-02-26T04:57:32;20.80;;;14.00;;
22754;SDS011;11544;42.020;23.094;2024-02-26T04:59:59;25.83;;;15.43;;
22754;SDS011;11544;42.020;23.094;2024-02-26T05:02:26;23.33;;;13.80;;
22754;SDS011;11544;42.020;23.094;2024-02-26T05:04:53;26.00;;;16.73;;
22754;SDS011;11544;42.020;23.094;2024-02-26T05:07:20;27.75;;;16.65;;
22754;SDS011;11544;42.020;23.094;2024-02-26T05:09:47;23.88;;;15.60;;
22754;SDS011;11544;42.020;23.094;2024-02-26T05:12:16;25.90;;;16.05;;
22754;SDS011;11544;42.020;23.094;2024-02-26T05:14:43;20.70;;;14.57;;
22754;SDS011;11544;42.020;23.094;2024-02-26T05:17:10;26.15;;;14.43;;
22754;SDS011;11544;42.020;23.094;2024-02-26T05:19:37;22.58;;;14.20;;
22754;SDS011;11544;42.020;23.094;2024-02-26T05:22:07;25.08;;;14.80;;
22754;SDS011;11544;42.020;23.094;2024-02-26T05:24:34;20.88;;;14.35;;
22754;SDS011;11544;42.020;23.094;2024-02-26T05:27:04;23.30;;;13.57;;
22754;SDS011;11544;42.020;23.094;2024-02-26T05:29:31;20.95;;;14.57;;
22754;SDS011;11544;42.020;23.094;2024-02-26T05:31:58;26.02;;;15.70;;
22754;SDS011;11544;42.020;23.094;2024-02-26T05:34:25;25.58;;;14.95;;
22754;SDS011;11544;42.020;23.094;2024-02-26T05:36:52;24.92;;;15.35;;
22754;SDS011;11544;42.020;23.094;2024-02-26T05:39:19;28.02;;;14.18;;
22754;SDS011;11544;42.020;23.094;2024-02-26T05:41:46;26.08;;;15.35;;
22754;SDS011;11544;42.020;23.094;2024-02-26T05:44:13;31.80;;;16.30;;
22754;SDS011;11544;42.020;23.094;2024-02-26T05:46:41;28.52;;;16.13;;
22754;SDS011;11544;42.020;23.094;2024-02-26T05:49:08;33.35;;;15.93;;
22754;SDS011;11544;42.020;23.094;2024-02-26T05:51:35;26.90;;;16.00;;
22754;SDS011;11544;42.020;23.094;2024-02-26T05:54:02;24.58;;;14.43;;
22754;SDS011;11544;42.020;23.094;2024-02-26T05:56:30;24.73;;;14.90;;
22754;SDS011;11544;42.020;23.094;2024-02-26T05:58:56;28.13;;;15.40;;
22754;SDS011;11544;42.020;23.094;2024-02-26T06:01:23;22.38;;;14.05;;
22754;SDS011;11544;42.020;23.094;2024-02-26T06:03:52;25.17;;;14.68;;
22754;SDS011;11544;42.020;23.094;2024-02-26T06:06:20;27.92;;;16.40;;
22754;SDS011;11544;42.020;23.094;2024-02-26T06:08:50;27.88;;;16.92;;
22754;SDS011;11544;42.020;23.094;2024-02-26T06:11:17;30.42;;;16.77;;
22754;SDS011;11544;42.020;23.094;2024-02-26T06:13:45;24.83;;;16.50;;
22754;SDS011;11544;42.020;23.094;2024-02-26T06:16:12;26.70;;;16.92;;
22754;SDS011;11544;42.020;23.094;2024-02-26T06:18:39;32.17;;;19.10;;
22754;SDS011;11544;42.020;23.094;2024-02-26T06:21:10;33.83;;;19.88;;
22754;SDS011;11544;42.020;23.094;2024-02-26T06:23:38;28.95;;;18.95;;
22754;SDS011;11544;42.020;23.094;2024-02-26T06:26:07;30.70;;;19.73;;
22754;SDS011;11544;42.020;23.094;2024-02-26T06:28:34;34.53;;;20.42;;
22754;SDS011;11544;42.020;23.094;2024-02-26T06:31:02;32.13;;;19.85;;
22754;SDS011;11544;42.020;23.094;2024-02-26T06:33:29;31.90;;;19.77;;
22754;SDS011;11544;42.020;23.094;2024-02-26T06:35:56;31.75;;;19.33;;
22754;SDS011;11544;42.020;23.094;2024-02-26T06:38:23;45.40;;;27.95;;
22754;SDS011;11544;42.020;23.094;2024-02-26T06:40:50;63.65;;;36.38;;
22754;SDS011;11544;42.020;23.094;2024-02-26T06:43:17;38.15;;;23.67;;
22754;SDS011;11544;42.020;23.094;2024-02-26T06:45:44;36.05;;;20.10;;
22754;SDS011;11544;42.020;23.094;2024-02-26T06:48:11;30.67;;;19.42;;
22754;SDS011;11544;42.020;23.094;2024-02-26T06:50:38;27.75;;;17.58;;
22754;SDS011;11544;42.020;23.094;2024-02-26T06:53:10;25.10;;;17.15;;
22754;SDS011;11544;42.020;23.094;2024-02-26T06:55:37;30.90;;;20.98;;
22754;SDS011;11544;42.020;23.094;2024-02-26T06:58:06;28.30;;;18.17;;
22754;SDS011;11544;42.020;23.094;2024-02-26T07:00:35;27.27;;;18.17;;
22754;SDS011;11544;42.020;23.094;2024-02-26T07:03:03;31.15;;;18.58;;
22754;SDS011;11544;42.020;23.094;2024-02-26T07:05:30;24.65;;;16.92;;
22754;SDS011;11544;42.020;23.094;2024-02-26T07:07:57;33.28;;;18.75;;
22754;SDS011;11544;42.020;23.094;2024-02-26T07:10:24;36.38;;;21.80;;
22754;SDS011;11544;42.020;23.094;2024-02-26T07:12:51;40.30;;;24.52;;
22754;SDS011;11544;42.020;23.094;2024-02-26T07:15:18;37.55;;;24.85;;
22754;SDS011;11544;42.020;23.094;2024-02-26T07:17:46;40.47;;;28.15;;
22754;SDS011;11544;42.020;23.094;2024-02-26T07:20:14;41.88;;;24.48;;
22754;SDS011;11544;42.020;23.094;2024-02-26T07:22:43;36.17;;;23.52;;
22754;SDS011;11544;42.020;23.094;2024-02-26T07:25:09;33.40;;;19.45;;
22754;SDS011;11544;42.020;23.094;2024-02-26T07:27:40;39.05;;;20.92;;
22754;SDS011;11544;42.020;23.094;2024-02-26T07:30:07;36.47;;;22.90;;
22754;SDS011;11544;42.020;23.094;2024-02-26T07:32:37;39.45;;;21.95;;
22754;SDS011;11544;42.020;23.094;2024-02-26T07:35:04;35.65;;;22.70;;
22754;SDS011;11544;42.020;23.094;2024-02-26T07:37:32;43.75;;;26.50;;
22754;SDS011;11544;42.020;23.094;2024-02-26T07:39:59;45.85;;;26.15;;
22754;SDS011;11544;42.020;23.094;2024-02-26T07:42:26;35.80;;;25.13;;
22754;SDS011;11544;42.020;23.094;2024-02-26T07:44:53;40.95;;;24.65;;
22754;SDS011;11544;42.020;23.094;2024-02-26T07:47:20;34.35;;;21.13;;
22754;SDS011;11544;42.020;23.094;2024-02-26T07:49:48;27.98;;;17.40;;
22754;SDS011;11544;42.020;23.094;2024-02-26T07:52:15;31.42;;;18.48;;
22754;SDS011;11544;42.020;23.094;2024-02-26T07:54:42;29.13;;;18.60;;
22754;SDS011;11544;42.020;23.094;2024-02-26T07:57:08;28.20;;;19.30;;
22754;SDS011;11544;42.020;23.094;2024-02-26T07:59:35;28.77;;;19.10;;
22754;SDS011;11544;42.020;23.094;2024-02-26T08:02:02;28.50;;;18.80;;
22754;SDS011;11544;42.020;23.094;2024-02-26T08:04:30;31.85;;;19.20;;
22754;SDS011;11544;42.020;23.094;2024-02-26T08:06:57;28.13;;;19.63;;
22754;SDS011;11544;42.020;23.094;2024-02-26T08:09:24;34.33;;;19.67;;
22754;SDS011;11544;42.020;23.094;2024-02-26T08:11:56;30.35;;;18.30;;
22754;SDS011;11544;42.020;23.094;2024-02-26T08:14:23;26.80;;;17.90;;
22754;SDS011;11544;42.020;23.094;2024-02-26T08:16:50;31.70;;;19.00;;
22754;SDS011;11544;42.020;23.094;2024-02-26T08:19:17;32.58;;;18.40;;
22754;SDS011;11544;42.020;23.094;2024-02-26T08:21:44;33.70;;;19.20;;
22754;SDS011;11544;42.020;23.094;2024-02-26T08:24:11;35.38;;;18.42;;
22754;SDS011;11544;42.020;23.094;2024-02-26T08:26:38;30.42;;;18.08;;
22754;SDS011;11544;42.020;23.094;2024-02-26T08:29:05;29.08;;;16.58;;
22754;SDS011;11544;42.020;23.094;2024-02-26T08:31:31;24.40;;;17.00;;
22754;SDS011;11544;42.020;23.094;2024-02-26T08:33:58;27.02;;;17.63;;
22754;SDS011;11544;42.020;23.094;2024-02-26T08:36:27;28.67;;;17.65;;
22754;SDS011;11544;42.020;23.094;2024-02-26T08:38:54;26.30;;;18.08;;
22754;SDS011;11544;42.020;23.094;2024-02-26T08:41:21;26.52;;;17.67;;
22754;SDS011;11544;42.020;23.094;2024-02-26T08:43:47;29.88;;;17.90;;
22754;SDS011;11544;42.020;23.094;2024-02-26T08:46:14;43.05;;;22.65;;
22754;SDS011;11544;42.020;23.094;2024-02-26T08:48:41;32.42;;;19.00;;
22754;SDS011;11544;42.020;23.094;2024-02-26T08:51:09;37.22;;;18.08;;
22754;SDS011;11544;42.020;23.094;2024-02-26T08:53:36;31.45;;;18.38;;
22754;SDS011;11544;42.020;23.094;2024-02-26T08:56:09;34.33;;;18.70;;
22754;SDS011;11544;42.020;23.094;2024-02-26T08:58:43;30.83;;;19.63;;
22754;SDS011;11544;42.020;23.094;2024-02-26T09:01:10;32.10;;;18.65;;
22754;SDS011;11544;42.020;23.094;2024-02-26T09:03:37;27.92;;;18.38;;
22754;SDS011;11544;42.020;23.094;2024-02-26T09:06:04;31.42;;;19.67;;
22754;SDS011;11544;42.020;23.094;2024-02-26T09:08:33;33.80;;;19.80;;
22754;SDS011;11544;42.020;23.094;2024-02-26T09:11:02;30.92;;;18.92;;
22754;SDS011;11544;42.020;23.094;2024-02-26T09:13:29;30.42;;;17.73;;
22754;SDS011;11544;42.020;23.094;2024-02-26T09:15:56;31.67;;;17.70;;
22754;SDS011;11544;42.020;23.094;2024-02-26T09:18:23;29.10;;;17.90;;
22754;SDS011;11544;42.020;23.094;2024-02-26T09:20:51;31.13;;;18.13;;
22754;SDS011;11544;42.020;23.094;2024-02-26T09:23:18;28.63;;;16.83;;
22754;SDS011;11544;42.020;23.094;2024-02-26T09:25:45;27.80;;;16.25;;
22754;SDS011;11544;42.020;23.094;2024-02-26T09:28:12;26.80;;;16.85;;
22754;SDS011;11544;42.020;23.094;2024-02-26T09:30:39;28.73;;;16.77;;
22754;SDS011;11544;42.020;23.094;2024-02-26T09:33:06;26.85;;;15.80;;
22754;SDS011;11544;42.020;23.094;2024-02-26T09:35:33;29.67;;;15.45;;
22754;SDS011;11544;42.020;23.094;2024-02-26T09:38:00;21.20;;;13.50;;
22754;SDS011;11544;42.020;23.094;2024-02-26T09:40:27;27.35;;;14.45;;
22754;SDS011;11544;42.020;23.094;2024-02-26T09:42:56;24.02;;;13.63;;
22754;SDS011;11544;42.020;23.094;2024-02-26T09:45:27;22.10;;;13.13;;
22754;SDS011;11544;42.020;23.094;2024-02-26T09:47:55;23.52;;;12.95;;
22754;SDS011;11544;42.020;23.094;2024-02-26T09:50:22;19.60;;;11.55;;
22754;SDS011;11544;42.020;23.094;2024-02-26T09:52:50;17.85;;;10.85;;
22754;SDS011;11544;42.020;23.094;2024-02-26T09:55:21;21.80;;;10.70;;
22754;SDS011;11544;42.020;23.094;2024-02-26T09:57:49;10.38;;;7.22;;
22754;SDS011;11544;42.020;23.094;2024-02-26T10:00:19;12.70;;;8.25;;
22754;SDS011;11544;42.020;23.094;2024-02-26T10:02:48;11.95;;;7.38;;
22754;SDS011;11544;42.020;23.094;2024-02-26T10:05:18;11.65;;;7.45;;
22754;SDS011;11544;42.020;23.094;2024-02-26T10:07:46;11.45;;;7.63;;
22754;SDS011;11544;42.020;23.094;2024-02-26T10:10:14;10.15;;;6.85;;
22754;SDS011;11544;42.020;23.094;2024-02-26T10:12:41;9.02;;;6.45;;
22754;SDS011;11544;42.020;23.094;2024-02-26T10:15:08;9.40;;;6.22;;
22754;SDS011;11544;42.020;23.094;2024-02-26T10:17:35;9.30;;;6.55;;
22754;SDS011;11544;42.020;23.094;2024-02-26T10:20:16;11.40;;;7.35;;
22754;SDS011;11544;42.020;23.094;2024-02-26T10:22:45;19.65;;;12.60;;
22754;SDS011;11544;42.020;23.094;2024-02-26T10:25:12;23.42;;;13.48;;
22754;SDS011;11544;42.020;23.094;2024-02-26T10:27:43;9.80;;;7.35;;
22754;SDS011;11544;42.020;23.094;2024-02-26T10:30:17;10.20;;;6.75;;
22754;SDS011;11544;42.020;23.094;2024-02-26T10:32:48;11.02;;;6.10;;
22754;SDS011;11544;42.020;23.094;2024-02-26T10:35:17;9.40;;;5.97;;
22754;SDS011;11544;42.020;23.094;2024-02-26T10:37:44;11.05;;;6.15;;
22754;SDS011;11544;42.020;23.094;2024-02-26T10:40:13;8.00;;;6.57;;
22754;SDS011;11544;42.020;23.094;2024-02-26T10:42:41;10.02;;;6.20;;
22754;SDS011;11544;42.020;23.094;2024-02-26T10:45:09;10.73;;;7.10;;
22754;SDS011;11544;42.020;23.094;2024-02-26T10:47:36;13.13;;;7.78;;
22754;SDS011;11544;42.020;23.094;2024-02-26T10:50:05;12.30;;;7.47;;
22754;SDS011;11544;42.020;23.094;2024-02-26T10:52:33;13.73;;;8.00;;
22754;SDS011;11544;42.020;23.094;2024-02-26T10:55:03;12.95;;;8.32;;
22754;SDS011;11544;42.020;23.094;2024-02-26T10:57:40;9.25;;;6.72;;
22754;SDS011;11544;42.020;23.094;2024-02-26T11:00:10;10.02;;;6.13;;
22754;SDS011;11544;42.020;23.094;2024-02-26T11:02:40;7.25;;;5.80;;
22754;SDS011;11544;42.020;23.094;2024-02-26T11:05:11;9.05;;;5.80;;
22754;SDS011;11544;42.020;23.094;2024-02-26T11:07:38;11.02;;;6.22;;
22754;SDS011;11544;42.020;23.094;2024-02-26T11:10:08;11.48;;;6.03;;
22754;SDS011;11544;42.020;23.094;2024-02-26T11:12:38;9.55;;;5.57;;
22754;SDS011;11544;42.020;23.094;2024-02-26T11:15:06;8.02;;;5.85;;
22754;SDS011;11544;42.020;23.094;2024-02-26T11:17:35;9.60;;;5.68;;
22754;SDS011;11544;42.020;23.094;2024-02-26T11:20:05;8.82;;;5.63;;
22754;SDS011;11544;42.020;23.094;2024-02-26T11:22:37;9.38;;;5.40;;
22754;SDS011;11544;42.020;23.094;2024-02-26T11:25:04;9.63;;;5.25;;
22754;SDS011;11544;42.020;23.094;2024-02-26T11:27:34;9.55;;;6.18;;
22754;SDS011;11544;42.020;23.094;2024-02-26T11:30:08;13.10;;;7.13;;
22754;SDS011;11544;42.020;23.094;2024-02-26T11:32:37;8.95;;;5.60;;
22754;SDS011;11544;42.020;23.094;2024-02-26T11:35:05;10.85;;;5.88;;
22754;SDS011;11544;42.020;23.094;2024-02-26T11:37:34;12.55;;;8.02;;
22754;SDS011;11544;42.020;23.094;2024-02-26T11:40:05;11.35;;;6.18;;
22754;SDS011;11544;42.020;23.094;2024-02-26T11:42:44;10.60;;;6.43;;
22754;SDS011;11544;42.020;23.094;2024-02-26T11:50:48;7.47;;;5.03;;
22754;SDS011;11544;42.020;23.094;2024-02-26T11:53:23;8.93;;;5.80;;
22754;SDS011;11544;42.020;23.094;2024-02-26T11:58:44;8.75;;;5.47;;
22754;SDS011;11544;42.020;23.094;2024-02-26T12:04:17;8.38;;;4.55;;
22754;SDS011;11544;42.020;23.094;2024-02-26T12:06:56;9.18;;;4.05;;
22754;SDS011;11544;42.020;23.094;2024-02-26T12:09:30;8.48;;;5.03;;
22754;SDS011;11544;42.020;23.094;2024-02-26T12:11:59;8.30;;;4.70;;
22754;SDS011;11544;42.020;23.094;2024-02-26T12:14:28;8.88;;;4.40;;
22754;SDS011;11544;42.020;23.094;2024-02-26T12:16:55;6.53;;;4.10;;
22754;SDS011;11544;42.020;23.094;2024-02-26T12:19:24;10.95;;;4.85;;
22754;SDS011;11544;42.020;23.094;2024-02-26T12:21:52;9.13;;;4.45;;
22754;SDS011;11544;42.020;23.094;2024-02-26T12:24:21;13.25;;;4.55;;
22754;SDS011;11544;42.020;23.094;2024-02-26T12:26:48;8.80;;;5.22;;
22754;SDS011;11544;42.020;23.094;2024-02-26T12:29:15;8.02;;;5.20;;
22754;SDS011;11544;42.020;23.094;2024-02-26T12:31:42;9.18;;;5.72;;
22754;SDS011;11544;42.020;23.094;2024-02-26T12:34:10;16.35;;;7.43;;
22754;SDS011;11544;42.020;23.094;2024-02-26T12:36:37;12.45;;;5.63;;
22754;SDS011;11544;42.020;23.094;2024-02-26T12:39:05;9.23;;;4.22;;
22754;SDS011;11544;42.020;23.094;2024-02-26T12:41:33;6.82;;;3.83;;
22754;SDS011;11544;42.020;23.094;2024-02-26T12:44:01;10.20;;;4.32;;
22754;SDS011;11544;42.020;23.094;2024-02-26T12:46:28;7.80;;;4.80;;
22754;SDS011;11544;42.020;23.094;2024-02-26T12:48:56;11.80;;;5.15;;
22754;SDS011;11544;42.020;23.094;2024-02-26T12:51:26;8.85;;;4.10;;
22754;SDS011;11544;42.020;23.094;2024-02-26T12:53:54;8.88;;;4.35;;
22754;SDS011;11544;42.020;23.094;2024-02-26T12:56:22;6.57;;;4.10;;
22754;SDS011;11544;42.020;23.094;2024-02-26T12:58:50;15.68;;;7.72;;
22754;SDS011;11544;42.020;23.094;2024-02-26T13:01:19;18.40;;;10.48;;
22754;SDS011;11544;42.020;23.094;2024-02-26T13:03:49;22.67;;;10.65;;
22754;SDS011;11544;42.020;23.094;2024-02-26T13:06:18;19.35;;;8.60;;
22754;SDS011;11544;42.020;23.094;2024-02-26T13:08:45;9.10;;;5.78;;
22754;SDS011;11544;42.020;23.094;2024-02-26T13:17:40;8.43;;;4.97;;
22754;SDS011;11544;42.020;23.094;2024-02-26T13:20:08;10.23;;;5.28;;
22754;SDS011;11544;42.020;23.094;2024-02-26T13:22:36;9.48;;;5.38;;
22754;SDS011;11544;42.020;23.094;2024-02-26T13:25:04;14.60;;;6.30;;
22754;SDS011;11544;42.020;23.094;2024-02-26T13:27:34;11.13;;;6.53;;
22754;SDS011;11544;42.020;23.094;2024-02-26T13:30:04;9.32;;;5.45;;
22754;SDS011;11544;42.020;23.094;2024-02-26T13:32:32;9.43;;;5.30;;
22754;SDS011;11544;42.020;23.094;2024-02-26T13:35:04;9.27;;;5.50;;
22754;SDS011;11544;42.020;23.094;2024-02-26T13:37:34;8.82;;;5.18;;
22754;SDS011;11544;42.020;23.094;2024-02-26T13:40:20;9.32;;;5.40;;
22754;SDS011;11544;42.020;23.094;2024-02-26T13:42:47;6.75;;;3.78;;
22754;SDS011;11544;42.020;23.094;2024-02-26T13:45:14;8.10;;;3.92;;
22754;SDS011;11544;42.020;23.094;2024-02-26T13:47:41;14.73;;;4.95;;
22754;SDS011;11544;42.020;23.094;2024-02-26T13:50:08;10.40;;;4.80;;
22754;SDS011;11544;42.020;23.094;2024-02-26T13:52:35;10.25;;;5.63;;
22754;SDS011;11544;42.020;23.094;2024-02-26T13:55:02;8.88;;;5.05;;
22754;SDS011;11544;42.020;23.094;2024-02-26T13:57:29;9.95;;;4.68;;
22754;SDS011;11544;42.020;23.094;2024-02-26T13:59:56;9.18;;;4.32;;
22754;SDS011;11544;42.020;23.094;2024-02-26T14:02:23;7.90;;;4.60;;
22754;SDS011;11544;42.020;23.094;2024-02-26T14:04:50;10.68;;;5.55;;
22754;SDS011;11544;42.020;23.094;2024-02-26T14:07:17;9.70;;;4.00;;
22754;SDS011;11544;42.020;23.094;2024-02-26T14:09:44;6.97;;;4.07;;
22754;SDS011;11544;42.020;23.094;2024-02-26T14:12:16;6.85;;;4.40;;
22754;SDS011;11544;42.020;23.094;2024-02-26T14:14:47;9.85;;;4.07;;
22754;SDS011;11544;42.020;23.094;2024-02-26T14:17:15;6.30;;;4.35;;
22754;SDS011;11544;42.020;23.094;2024-02-26T14:19:42;7.50;;;4.57;;
22754;SDS011;11544;42.020;23.094;2024-02-26T14:22:14;9.98;;;5.13;;
22754;SDS011;11544;42.020;23.094;2024-02-26T14:24:44;13.02;;;5.50;;
22754;SDS011;11544;42.020;23.094;2024-02-26T14:27:11;8.50;;;5.18;;
22754;SDS011;11544;42.020;23.094;2024-02-26T14:29:45;7.47;;;4.70;;
22754;SDS011;11544;42.020;23.094;2024-02-26T14:32:12;6.50;;;4.18;;
22754;SDS011;11544;42.020;23.094;2024-02-26T14:34:39;7.05;;;4.55;;
22754;SDS011;11544;42.020;23.094;2024-02-26T14:37:06;9.00;;;4.43;;
22754;SDS011;11544;42.020;23.094;2024-02-26T14:39:33;15.85;;;5.32;;